createdAt,value
2023-02-24T00:00:32.080Z,20.70
2023-02-24T00:03:06.373Z,23.30
2023-02-24T00:05:35.891Z,21.83
2023-02-24T00:08:03.701Z,31.20
2023-02-24T00:10:32.782Z,18.37
2023-02-24T00:13:00.517Z,23.83
2023-02-24T00:15:28.176Z,21.40
2023-02-24T00:17:55.835Z,19.10
2023-02-24T00:20:25.059Z,25.40
2023-02-24T00:22:52.740Z,18.57
2023-02-24T00:25:20.407Z,18.03
2023-02-24T00:27:48.173Z,18.43
2023-02-24T00:30:17.015Z,24.17
2023-02-24T00:32:45.562Z,26.43
2023-02-24T00:35:13.317Z,28.43
2023-02-24T00:37:42.417Z,19.23
2023-02-24T00:40:12.139Z,21.67
2023-02-24T00:42:42.701Z,15.20
2023-02-24T00:45:11.032Z,24.27
2023-02-24T00:47:39.968Z,24.00
2023-02-24T00:50:08.417Z,18.33
2023-02-24T00:52:36.948Z,23.50
2023-02-24T00:55:14.001Z,23.80
2023-02-24T00:57:42.394Z,22.20
2023-02-24T01:00:16.609Z,20.57
2023-02-24T01:02:46.174Z,32.87
2023-02-24T01:05:15.049Z,20.10
2023-02-24T01:07:42.969Z,19.30
2023-02-24T01:10:13.328Z,18.63
2023-02-24T01:12:49.607Z,25.10
2023-02-24T01:15:18.814Z,13.53
2023-02-24T01:17:46.912Z,22.70
2023-02-24T01:20:18.950Z,24.73
2023-02-24T01:22:48.417Z,25.73
2023-02-24T01:25:18.962Z,26.53
2023-02-24T01:27:46.686Z,24.90
2023-02-24T01:30:16.229Z,27.50
2023-02-24T01:32:44.518Z,26.60
2023-02-24T01:35:14.311Z,23.73
2023-02-24T01:37:43.193Z,16.57
2023-02-24T01:40:18.615Z,21.67
2023-02-24T01:42:49.354Z,16.40
2023-02-24T01:45:25.125Z,25.83
2023-02-24T01:47:53.429Z,23.53
2023-02-24T01:50:26.039Z,24.17
2023-02-24T01:52:56.523Z,29.97
2023-02-24T01:55:28.980Z,19.53
2023-02-24T01:58:00.519Z,23.57
2023-02-24T02:00:45.298Z,17.43
2023-02-24T02:03:19.559Z,21.40
2023-02-24T02:05:48.591Z,21.83
2023-02-24T02:08:17.607Z,20.20
2023-02-24T02:10:46.345Z,18.13
2023-02-24T02:13:20.955Z,17.37
2023-02-24T02:15:57.917Z,20.17
2023-02-24T02:18:31.027Z,19.73
2023-02-24T02:21:19.811Z,22.27
2023-02-24T02:24:10.197Z,26.23
2023-02-24T02:27:02.112Z,23.17
2023-02-24T02:29:46.608Z,20.27
2023-02-24T02:32:55.652Z,26.10
2023-02-24T02:35:27.924Z,27.57
2023-02-24T02:37:59.118Z,20.10
2023-02-24T02:40:30.601Z,20.10
2023-02-24T02:43:00.863Z,25.10
2023-02-24T02:45:31.191Z,25.70
2023-02-24T02:48:02.380Z,22.63
2023-02-24T02:50:35.992Z,27.77
2023-02-24T02:53:06.161Z,21.47
2023-02-24T02:55:39.173Z,20.40
2023-02-24T02:58:10.449Z,17.50
2023-02-24T03:00:43.446Z,16.07
2023-02-24T03:03:13.915Z,25.50
2023-02-24T03:05:46.933Z,18.50
2023-02-24T03:08:18.217Z,20.10
2023-02-24T03:10:51.162Z,12.97
2023-02-24T03:13:22.303Z,12.33
2023-02-24T03:15:51.649Z,18.57
2023-02-24T03:18:21.544Z,21.60
2023-02-24T03:20:52.943Z,15.83
2023-02-24T03:23:25.832Z,29.70
2023-02-24T03:25:58.668Z,17.73
2023-02-24T03:28:34.020Z,19.90
2023-02-24T03:31:04.860Z,29.77
2023-02-24T03:33:36.561Z,20.17
2023-02-24T03:36:07.097Z,10.67
2023-02-24T03:38:37.877Z,23.03
2023-02-24T03:41:11.281Z,17.47
2023-02-24T03:43:42.467Z,10.40
2023-02-24T03:46:10.198Z,13.67
2023-02-24T03:48:42.243Z,9.27
2023-02-24T03:51:16.015Z,16.23
2023-02-24T03:53:55.204Z,12.23
2023-02-24T03:56:30.215Z,15.73
2023-02-24T03:59:12.765Z,13.07
2023-02-24T04:01:46.540Z,14.80
2023-02-24T04:04:20.038Z,16.77
2023-02-24T04:06:56.237Z,14.90
2023-02-24T04:09:29.736Z,13.27
2023-02-24T04:12:09.181Z,12.13
2023-02-24T04:14:44.192Z,18.57
2023-02-24T04:17:19.240Z,14.27
2023-02-24T04:19:49.344Z,10.87
2023-02-24T04:22:24.583Z,16.50
2023-02-24T04:24:55.430Z,9.40
2023-02-24T04:27:24.169Z,12.50
2023-02-24T04:29:55.117Z,7.93
2023-02-24T04:32:25.879Z,14.57
2023-02-24T04:34:54.255Z,16.37
2023-02-24T04:37:23.855Z,11.43
2023-02-24T04:39:51.916Z,8.20
2023-02-24T04:42:22.338Z,11.23
2023-02-24T04:44:50.104Z,11.83
2023-02-24T04:47:17.755Z,15.03
2023-02-24T04:49:45.469Z,10.33
2023-02-24T04:52:15.451Z,10.33
2023-02-24T04:54:44.964Z,20.50
2023-02-24T04:57:12.899Z,21.17
2023-02-24T04:59:40.705Z,12.80
2023-02-24T05:02:08.388Z,15.13
2023-02-24T05:04:38.968Z,11.40
2023-02-24T05:07:06.788Z,12.90
2023-02-24T05:09:34.468Z,11.80
2023-02-24T05:12:05.185Z,11.43
2023-02-24T05:14:32.870Z,13.93
2023-02-24T05:17:00.719Z,10.83
2023-02-24T05:19:45.958Z,11.27
2023-02-24T05:22:14.452Z,17.60
2023-02-24T05:24:42.239Z,16.07
2023-02-24T05:27:11.363Z,16.43
2023-02-24T05:29:40.499Z,7.67
2023-02-24T05:32:08.438Z,11.93
2023-02-24T05:34:39.065Z,16.77
2023-02-24T05:37:10.908Z,10.87
2023-02-24T05:39:38.963Z,10.07
2023-02-24T05:42:06.989Z,11.13
2023-02-24T05:44:36.904Z,12.20
2023-02-24T05:47:05.633Z,10.93
2023-02-24T05:49:34.844Z,14.77
2023-02-24T05:52:08.813Z,11.13
2023-02-24T05:54:39.236Z,16.87
2023-02-24T05:57:09.215Z,8.13
2023-02-24T05:59:39.271Z,11.10
2023-02-24T06:02:09.544Z,14.97
2023-02-24T06:04:46.433Z,11.90
2023-02-24T06:07:19.188Z,13.67
2023-02-24T06:09:50.332Z,9.97
2023-02-24T06:12:18.984Z,11.13
2023-02-24T06:14:48.355Z,8.57
2023-02-24T06:17:17.057Z,18.50
2023-02-24T06:19:44.958Z,14.93
2023-02-24T06:22:14.623Z,10.47
2023-02-24T06:24:44.358Z,17.83
2023-02-24T06:27:17.661Z,21.20
2023-02-24T06:29:46.274Z,6.47
2023-02-24T06:32:15.537Z,11.63
2023-02-24T06:34:43.392Z,10.60
2023-02-24T06:37:13.861Z,15.93
2023-02-24T06:39:41.769Z,9.07
2023-02-24T06:42:10.471Z,11.20
2023-02-24T06:44:39.317Z,11.10
2023-02-24T06:47:09.368Z,13.60
2023-02-24T06:49:38.394Z,13.27
2023-02-24T06:52:06.920Z,19.67
2023-02-24T06:54:36.196Z,9.07
2023-02-24T06:57:04.924Z,9.80
2023-02-24T06:59:32.777Z,12.73
2023-02-24T07:02:01.994Z,11.50
2023-02-24T07:04:30.052Z,7.90
2023-02-24T07:07:03.182Z,9.97
2023-02-24T07:09:32.292Z,11.57
2023-02-24T07:12:02.652Z,9.80
2023-02-24T07:14:31.659Z,9.57
2023-02-24T07:17:00.350Z,13.63
2023-02-24T07:19:29.792Z,14.07
2023-02-24T07:22:01.933Z,13.80
2023-02-24T07:24:35.931Z,11.73
2023-02-24T07:27:05.104Z,12.80
2023-02-24T07:29:34.412Z,11.57
2023-02-24T07:32:05.464Z,11.27
2023-02-24T07:34:34.228Z,11.30
2023-02-24T07:37:07.990Z,10.43
2023-02-24T07:39:37.587Z,14.37
2023-02-24T07:42:06.207Z,14.50
2023-02-24T07:44:34.136Z,14.13
2023-02-24T07:47:07.730Z,10.70
2023-02-24T07:49:36.183Z,11.53
2023-02-24T07:52:08.166Z,20.27
2023-02-24T07:54:36.243Z,12.13
2023-02-24T07:57:04.895Z,19.80
2023-02-24T07:59:34.283Z,15.63
2023-02-24T08:02:04.922Z,14.40
2023-02-24T08:04:33.886Z,12.47
2023-02-24T08:07:03.366Z,13.33
2023-02-24T08:10:09.018Z,12.10
2023-02-24T08:12:42.739Z,13.93
2023-02-24T08:15:18.011Z,19.47
2023-02-24T08:17:47.332Z,15.67
2023-02-24T08:20:25.975Z,13.53
2023-02-24T08:22:55.047Z,13.10
2023-02-24T08:25:25.756Z,8.73
2023-02-24T08:28:07.407Z,14.87
2023-02-24T08:30:39.862Z,15.93
2023-02-24T08:33:09.404Z,19.87
2023-02-24T08:35:39.165Z,18.87
2023-02-24T08:38:09.852Z,12.53
2023-02-24T08:40:50.227Z,21.20
2023-02-24T08:43:31.171Z,22.30
2023-02-24T08:46:03.717Z,13.27
2023-02-24T08:48:37.295Z,14.27
2023-02-24T08:51:09.678Z,16.23
2023-02-24T08:53:40.559Z,14.03
2023-02-24T08:56:11.876Z,17.10
2023-02-24T08:58:46.835Z,19.87
2023-02-24T09:01:24.163Z,15.07
2023-02-24T09:03:54.485Z,16.00
2023-02-24T09:06:26.609Z,16.33
2023-02-24T09:09:14.793Z,13.63
2023-02-24T09:11:45.041Z,16.00
2023-02-24T09:14:26.729Z,13.20
2023-02-24T09:17:07.148Z,15.73
2023-02-24T09:20:02.416Z,21.33
2023-02-24T09:22:55.766Z,24.07
2023-02-24T09:25:25.729Z,15.67
2023-02-24T09:28:07.727Z,9.87
2023-02-24T09:30:37.774Z,11.07
2023-02-24T09:33:17.842Z,11.83
2023-02-24T09:35:51.550Z,23.83
2023-02-24T09:38:20.963Z,17.87
2023-02-24T09:40:50.394Z,20.63
2023-02-24T09:43:24.056Z,21.13
2023-02-24T09:46:02.717Z,15.50
2023-02-24T09:48:43.701Z,23.10
2023-02-24T09:51:21.450Z,17.40
2023-02-24T09:53:53.605Z,17.93
2023-02-24T09:56:30.405Z,14.53
2023-02-24T09:59:10.398Z,19.10
2023-02-24T10:01:44.583Z,21.03
2023-02-24T10:04:30.804Z,23.00
2023-02-24T10:07:03.033Z,28.90
2023-02-24T10:09:35.437Z,24.00
2023-02-24T10:12:11.617Z,19.10
2023-02-24T10:14:51.170Z,21.83
2023-02-24T10:17:30.697Z,22.47
2023-02-24T10:20:01.108Z,27.10
2023-02-24T10:22:39.797Z,26.00
2023-02-24T10:25:23.387Z,19.13
2023-02-24T10:28:01.822Z,19.63
2023-02-24T10:30:41.727Z,14.67
2023-02-24T10:33:20.613Z,21.83
2023-02-24T10:35:50.137Z,21.40
2023-02-24T10:38:17.929Z,21.10
2023-02-24T10:40:48.184Z,26.40
2023-02-24T10:43:30.085Z,34.20
2023-02-24T10:46:07.209Z,19.23
2023-02-24T10:48:41.846Z,20.50
2023-02-24T10:51:19.641Z,30.43
2023-02-24T10:53:53.366Z,24.53
2023-02-24T10:56:27.690Z,25.30
2023-02-24T10:59:41.293Z,31.63
2023-02-24T11:02:29.829Z,21.37
2023-02-24T11:05:26.932Z,17.90
2023-02-24T11:08:08.058Z,20.23
2023-02-24T11:10:53.001Z,18.90
2023-02-24T11:13:39.251Z,25.87
2023-02-24T11:16:27.185Z,23.23
2023-02-24T11:18:56.960Z,25.20
2023-02-24T11:21:26.220Z,20.47
2023-02-24T11:23:56.523Z,23.33
2023-02-24T11:26:27.414Z,15.40
2023-02-24T11:29:17.496Z,21.70
2023-02-24T11:32:06.614Z,16.57
2023-02-24T11:34:42.717Z,16.93
2023-02-24T11:37:27.020Z,26.50
2023-02-24T11:40:00.419Z,21.93
2023-02-24T11:42:31.995Z,18.63
2023-02-24T11:45:02.720Z,16.47
2023-02-24T11:47:36.741Z,25.50
2023-02-24T11:50:17.564Z,20.80
2023-02-24T11:52:47.681Z,21.90
2023-02-24T11:55:28.409Z,24.73
2023-02-24T11:57:59.196Z,26.83
2023-02-24T12:00:29.074Z,19.70
2023-02-24T12:03:03.838Z,20.20
2023-02-24T12:05:36.992Z,15.10
2023-02-24T12:08:08.269Z,19.73
2023-02-24T12:10:37.636Z,19.40
2023-02-24T12:13:09.606Z,18.03
2023-02-24T12:15:41.018Z,26.87
2023-02-24T12:18:14.771Z,25.70
2023-02-24T12:20:48.311Z,19.90
2023-02-24T12:23:18.434Z,30.10
2023-02-24T12:25:56.440Z,27.10
2023-02-24T12:28:34.028Z,23.00
2023-02-24T12:31:10.010Z,17.80
2023-02-24T12:33:49.381Z,20.67
2023-02-24T12:36:29.242Z,25.53
2023-02-24T12:39:07.022Z,23.87
2023-02-24T12:41:44.587Z,16.83
2023-02-24T12:44:20.994Z,19.23
2023-02-24T12:46:54.294Z,24.40
2023-02-24T12:49:33.499Z,16.70
2023-02-24T12:52:10.158Z,21.80
2023-02-24T12:54:43.262Z,20.93
2023-02-24T12:57:14.923Z,26.13
2023-02-24T12:59:43.669Z,25.23
2023-02-24T13:02:18.574Z,33.40
2023-02-24T13:04:54.063Z,30.10
2023-02-24T13:07:43.021Z,28.07
2023-02-24T13:10:20.311Z,24.13
2023-02-24T13:12:51.396Z,33.77
2023-02-24T13:15:22.235Z,32.43
2023-02-24T13:17:52.362Z,37.67
2023-02-24T13:20:29.295Z,27.33
2023-02-24T13:22:58.933Z,28.53
2023-02-24T13:25:32.181Z,34.47
2023-02-24T13:28:02.286Z,30.50
2023-02-24T13:30:38.094Z,14.87
2023-02-24T13:33:19.476Z,21.63
2023-02-24T13:35:48.164Z,15.43
2023-02-24T13:38:36.933Z,26.53
2023-02-24T13:41:09.811Z,17.73
2023-02-24T13:43:37.519Z,22.53
2023-02-24T13:46:18.259Z,19.37
2023-02-24T13:49:04.769Z,18.70
2023-02-24T13:51:50.386Z,28.43
2023-02-24T13:54:42.774Z,19.03
2023-02-24T13:57:32.843Z,20.50
2023-02-24T14:00:11.189Z,19.60
2023-02-24T14:02:42.956Z,22.37
2023-02-24T14:05:14.489Z,18.03
2023-02-24T14:07:42.237Z,21.03
2023-02-24T14:10:19.283Z,22.00
2023-02-24T14:12:47.876Z,24.17
2023-02-24T14:15:20.857Z,28.63
2023-02-24T14:17:56.704Z,20.53
2023-02-24T14:20:25.712Z,16.97
2023-02-24T14:22:55.064Z,30.40
2023-02-24T14:25:24.768Z,26.17
2023-02-24T14:27:53.721Z,25.03
2023-02-24T14:30:27.552Z,28.33
2023-02-24T14:32:56.094Z,19.57
2023-02-24T14:35:35.085Z,28.43
2023-02-24T14:38:03.018Z,21.97
2023-02-24T14:40:32.973Z,30.60
2023-02-24T14:43:00.706Z,21.63
2023-02-24T14:45:30.762Z,18.30
2023-02-24T14:47:58.494Z,29.93
2023-02-24T14:50:29.212Z,11.60
2023-02-24T14:52:58.611Z,19.13
2023-02-24T14:55:28.524Z,16.47
2023-02-24T14:58:02.264Z,6.67
2023-02-24T15:00:33.222Z,6.73
2023-02-24T15:03:06.357Z,11.53
2023-02-24T15:05:34.089Z,7.33
2023-02-24T15:08:03.851Z,4.80
2023-02-24T15:10:32.373Z,8.07
2023-02-24T15:13:08.958Z,5.53
2023-02-24T15:15:38.502Z,7.87
2023-02-24T15:18:11.959Z,4.37
2023-02-24T15:20:40.982Z,2.37
2023-02-24T15:23:26.033Z,6.73
2023-02-24T15:25:53.922Z,3.97
2023-02-24T15:28:27.630Z,7.50
2023-02-24T15:31:00.953Z,7.07
2023-02-24T15:33:32.467Z,4.30
2023-02-24T15:36:01.498Z,5.73
2023-02-24T15:38:32.780Z,17.93
2023-02-24T15:41:02.463Z,15.90
2023-02-24T15:43:37.119Z,7.77
2023-02-24T15:46:23.339Z,4.20
2023-02-24T15:48:54.158Z,6.93
2023-02-24T15:51:28.736Z,5.00
2023-02-24T15:53:56.468Z,4.97
2023-02-24T15:56:24.445Z,2.83
2023-02-24T15:58:53.715Z,10.30
2023-02-24T16:01:21.433Z,6.07
2023-02-24T16:03:49.670Z,6.33
2023-02-24T16:06:20.208Z,3.20
2023-02-24T16:08:49.139Z,6.87
2023-02-24T16:11:18.536Z,11.40
2023-02-24T16:13:49.751Z,10.30
2023-02-24T16:16:20.090Z,7.50
2023-02-24T16:18:48.041Z,5.60
2023-02-24T16:21:15.797Z,8.93
2023-02-24T16:23:44.063Z,10.70
2023-02-24T16:26:16.747Z,11.47
2023-02-24T16:28:44.968Z,8.80
2023-02-24T16:31:12.896Z,8.23
2023-02-24T16:33:54.180Z,11.83
2023-02-24T16:36:23.988Z,11.93
2023-02-24T16:38:52.045Z,11.07
2023-02-24T16:41:20.197Z,11.07
2023-02-24T16:43:48.125Z,11.83
2023-02-24T16:46:18.241Z,12.97
2023-02-24T16:48:48.456Z,14.90
2023-02-24T16:51:16.240Z,14.23
2023-02-24T16:53:44.235Z,12.70
2023-02-24T16:56:15.090Z,13.37
2023-02-24T16:58:42.813Z,12.37
2023-02-24T17:01:17.419Z,18.20
2023-02-24T17:03:48.991Z,22.30
2023-02-24T17:06:16.736Z,12.87
2023-02-24T17:08:46.073Z,14.60
2023-02-24T17:11:14.947Z,12.83
2023-02-24T17:13:43.573Z,15.37
2023-02-24T17:16:11.351Z,16.23
2023-02-24T17:18:39.052Z,15.23
2023-02-24T17:21:08.312Z,17.73
2023-02-24T17:23:36.037Z,15.10
2023-02-24T17:26:03.782Z,16.53
2023-02-24T17:28:31.590Z,25.23
2023-02-24T17:30:59.390Z,21.10
2023-02-24T17:33:27.260Z,21.43
2023-02-24T17:35:54.932Z,15.93
2023-02-24T17:38:24.979Z,17.23
2023-02-24T17:40:52.987Z,23.20
2023-02-24T17:43:20.690Z,23.27
2023-02-24T17:45:48.451Z,23.50
2023-02-24T17:48:16.602Z,22.23
2023-02-24T17:50:45.505Z,24.97
2023-02-24T17:53:13.341Z,21.23
2023-02-24T17:56:01.081Z,19.70
2023-02-24T17:58:29.866Z,21.50
2023-02-24T18:00:57.800Z,30.13
2023-02-24T18:03:25.641Z,26.57
2023-02-24T18:05:59.150Z,23.27
2023-02-24T18:08:26.853Z,22.37
2023-02-24T18:10:55.929Z,22.40
2023-02-24T18:13:23.698Z,30.20
2023-02-24T18:15:51.377Z,19.63
2023-02-24T18:18:19.065Z,18.77
2023-02-24T18:20:47.541Z,30.30
2023-02-24T18:23:15.304Z,19.07
2023-02-24T18:25:42.959Z,32.53
2023-02-24T18:28:12.075Z,14.53
2023-02-24T18:30:40.127Z,16.67
2023-02-24T18:33:08.078Z,25.17
2023-02-24T18:35:38.367Z,32.80
2023-02-24T18:38:06.613Z,29.47
2023-02-24T18:40:35.048Z,31.33
2023-02-24T18:43:02.727Z,27.63
2023-02-24T18:45:32.376Z,23.03
2023-02-24T18:48:04.885Z,29.30
2023-02-24T18:50:33.815Z,20.20
2023-02-24T18:53:01.459Z,23.83
2023-02-24T18:55:29.907Z,30.97
2023-02-24T18:57:57.559Z,27.10
2023-02-24T19:00:25.296Z,29.97
2023-02-24T19:02:54.515Z,21.20
2023-02-24T19:05:22.288Z,34.30
2023-02-24T19:07:49.940Z,22.33
2023-02-24T19:10:18.433Z,33.50
2023-02-24T19:12:47.117Z,27.27
2023-02-24T19:15:15.045Z,32.47
2023-02-24T19:17:42.803Z,36.23
2023-02-24T19:20:14.822Z,32.97
2023-02-24T19:22:42.888Z,32.37
2023-02-24T19:25:10.591Z,32.33
2023-02-24T19:27:38.314Z,32.53
2023-02-24T19:30:07.186Z,21.73
2023-02-24T19:32:35.057Z,33.07
2023-02-24T19:35:02.780Z,21.43
2023-02-24T19:37:32.847Z,26.17
2023-02-24T19:40:00.527Z,36.97
2023-02-24T19:42:28.494Z,33.93
2023-02-24T19:44:56.579Z,34.20
2023-02-24T19:47:24.296Z,35.20
2023-02-24T19:49:52.029Z,43.63
2023-02-24T19:52:19.728Z,39.50
2023-02-24T19:54:48.757Z,32.37
2023-02-24T19:57:16.456Z,28.93
2023-02-24T19:59:44.743Z,27.77
2023-02-24T20:02:12.525Z,31.03
2023-02-24T20:04:40.367Z,29.80
2023-02-24T20:07:08.103Z,29.80
2023-02-24T20:09:35.764Z,34.10
2023-02-24T20:12:05.100Z,45.17
2023-02-24T20:14:32.812Z,32.80
2023-02-24T20:17:00.564Z,42.57
2023-02-24T20:19:28.303Z,38.80
2023-02-24T20:21:55.929Z,28.33
2023-02-24T20:24:23.681Z,32.93
2023-02-24T20:26:51.388Z,26.40
2023-02-24T20:29:21.850Z,15.63
2023-02-24T20:31:49.874Z,25.83
2023-02-24T20:34:17.861Z,32.77
2023-02-24T20:36:45.650Z,19.37
2023-02-24T20:39:13.429Z,25.57
2023-02-24T20:41:41.606Z,17.37
2023-02-24T20:44:09.362Z,15.80
2023-02-24T20:46:38.604Z,17.67
2023-02-24T20:49:07.973Z,16.63
2023-02-24T20:51:37.962Z,20.07
2023-02-24T20:54:06.363Z,20.40
2023-02-24T20:56:36.520Z,17.40
2023-02-24T20:59:06.160Z,14.13
2023-02-24T21:01:35.386Z,15.67
2023-02-24T21:04:04.664Z,24.43
2023-02-24T21:06:32.559Z,23.67
2023-02-24T21:09:00.240Z,22.60
2023-02-24T21:11:29.771Z,21.07
2023-02-24T21:13:58.030Z,20.03
2023-02-24T21:16:26.820Z,17.17
2023-02-24T21:18:56.259Z,19.77
2023-02-24T21:21:25.321Z,28.60
2023-02-24T21:23:53.105Z,21.67
2023-02-24T21:26:21.381Z,14.17
2023-02-24T21:28:49.537Z,21.43
2023-02-24T21:31:20.295Z,18.30
2023-02-24T21:33:51.440Z,19.13
2023-02-24T21:36:21.088Z,16.73
2023-02-24T21:38:50.635Z,21.97
2023-02-24T21:41:20.299Z,26.10
2023-02-24T21:43:48.437Z,20.87
2023-02-24T21:46:18.076Z,29.17
2023-02-24T21:48:46.145Z,16.93
2023-02-24T21:51:14.651Z,22.63
2023-02-24T21:53:44.416Z,16.40
2023-02-24T21:56:17.274Z,14.67
2023-02-24T21:58:47.770Z,17.77
2023-02-24T22:01:17.183Z,12.03
2023-02-24T22:03:45.094Z,26.57
2023-02-24T22:06:14.838Z,12.23
2023-02-24T22:08:45.250Z,8.00
2023-02-24T22:11:15.888Z,21.23
2023-02-24T22:13:44.826Z,20.80
2023-02-24T22:16:14.910Z,18.33
2023-02-24T22:18:42.668Z,18.90
2023-02-24T22:21:11.815Z,25.33
2023-02-24T22:23:39.994Z,19.27
2023-02-24T22:26:09.652Z,15.10
2023-02-24T22:28:41.111Z,14.10
2023-02-24T22:31:10.733Z,25.07
2023-02-24T22:33:40.712Z,20.23
2023-02-24T22:36:10.000Z,26.73
2023-02-24T22:38:38.781Z,25.13
2023-02-24T22:41:08.152Z,22.90
2023-02-24T22:43:36.170Z,23.77
2023-02-24T22:46:07.114Z,30.93
2023-02-24T22:48:36.159Z,28.07
2023-02-24T22:51:05.404Z,22.53
2023-02-24T22:53:38.495Z,24.80
2023-02-24T22:56:06.987Z,32.23
2023-02-24T22:58:34.728Z,21.93
2023-02-24T23:01:02.552Z,19.93
2023-02-24T23:03:31.668Z,24.77
2023-02-24T23:06:00.657Z,21.47
2023-02-24T23:08:29.267Z,33.33
2023-02-24T23:10:57.917Z,25.63
2023-02-24T23:13:25.608Z,25.00
2023-02-24T23:15:53.327Z,21.83
2023-02-24T23:18:20.989Z,24.10
2023-02-24T23:20:59.474Z,21.67
2023-02-24T23:23:27.395Z,35.10
2023-02-24T23:25:55.116Z,22.63
2023-02-24T23:28:22.844Z,21.43
2023-02-24T23:30:50.570Z,28.93
2023-02-24T23:33:18.834Z,30.40
2023-02-24T23:35:46.712Z,20.73
2023-02-24T23:38:16.255Z,23.13
2023-02-24T23:40:49.921Z,26.77
2023-02-24T23:43:18.437Z,20.37
2023-02-24T23:45:46.501Z,20.60
2023-02-24T23:48:15.117Z,21.63
2023-02-24T23:50:45.858Z,21.50
2023-02-24T23:53:14.880Z,38.07
2023-02-24T23:55:42.612Z,19.13
2023-02-24T23:58:10.304Z,17.67
